createdAt,value
2018-10-21T00:02:36.377Z,9.29
2018-10-21T00:06:01.428Z,9.24
2018-10-21T00:09:26.225Z,9.17
2018-10-21T00:12:51.030Z,9.33
2018-10-21T00:16:15.738Z,9.04
2018-10-21T00:19:40.552Z,9.02
2018-10-21T00:23:05.356Z,9.04
2018-10-21T00:26:30.062Z,8.97
2018-10-21T00:29:54.842Z,9.06
2018-10-21T00:33:19.553Z,9.05
2018-10-21T00:36:44.320Z,9.05
2018-10-21T00:40:09.110Z,9.07
2018-10-21T00:43:33.941Z,9.09
2018-10-21T00:46:58.702Z,9.11
2018-10-21T00:50:23.409Z,9.03
2018-10-21T00:53:48.119Z,8.91
2018-10-21T00:57:12.914Z,8.88
2018-10-21T01:00:37.583Z,8.81
2018-10-21T01:04:02.357Z,8.91
2018-10-21T01:07:27.066Z,8.89
2018-10-21T01:10:51.795Z,8.79
2018-10-21T01:14:16.526Z,8.70
2018-10-21T01:17:41.330Z,8.81
2018-10-21T01:21:06.539Z,8.83
2018-10-21T01:24:31.238Z,8.67
2018-10-21T01:27:56.001Z,8.75
2018-10-21T01:31:20.765Z,8.70
2018-10-21T01:34:45.679Z,8.66
2018-10-21T01:38:10.440Z,8.59
2018-10-21T01:41:35.138Z,8.66
2018-10-21T01:44:59.868Z,8.52
2018-10-21T01:48:25.815Z,8.58
2018-10-21T01:51:50.516Z,8.55
2018-10-21T01:55:15.211Z,8.41
2018-10-21T01:58:39.917Z,8.40
2018-10-21T02:02:04.698Z,8.37
2018-10-21T02:05:29.826Z,8.42
2018-10-21T02:08:54.603Z,8.41
2018-10-21T02:12:19.378Z,8.44
2018-10-21T02:15:44.130Z,8.53
2018-10-21T02:19:08.966Z,8.58
2018-10-21T02:22:33.671Z,8.54
2018-10-21T02:25:58.419Z,8.52
2018-10-21T02:29:23.157Z,8.58
2018-10-21T02:32:48.871Z,8.58
2018-10-21T02:36:13.602Z,8.65
2018-10-21T02:39:38.323Z,8.64
2018-10-21T02:43:03.026Z,8.70
2018-10-21T02:46:28.073Z,8.61
2018-10-21T02:49:52.886Z,8.60
2018-10-21T02:53:17.669Z,8.53
2018-10-21T02:56:42.414Z,8.56
2018-10-21T03:00:07.232Z,8.64
2018-10-21T03:03:32.055Z,8.60
2018-10-21T03:06:56.874Z,8.87
2018-10-21T03:10:21.588Z,8.76
2018-10-21T03:13:46.425Z,8.76
2018-10-21T03:17:11.216Z,8.76
2018-10-21T03:20:36.009Z,8.75
2018-10-21T03:24:00.789Z,8.86
2018-10-21T03:27:25.533Z,8.90
2018-10-21T03:30:50.305Z,8.76
2018-10-21T03:34:15.044Z,8.85
2018-10-21T03:37:39.810Z,8.90
2018-10-21T03:41:04.590Z,8.87
2018-10-21T03:44:29.326Z,8.82
2018-10-21T03:47:54.104Z,8.69
2018-10-21T03:51:18.825Z,8.61
2018-10-21T03:54:47.831Z,8.70
2018-10-21T03:58:12.676Z,8.55
2018-10-21T04:01:37.404Z,8.62
2018-10-21T04:05:02.161Z,8.64
2018-10-21T04:08:26.903Z,8.68
2018-10-21T04:11:51.665Z,8.70
2018-10-21T04:15:16.412Z,8.56
2018-10-21T04:18:41.237Z,8.52
2018-10-21T04:22:06.084Z,8.49
2018-10-21T04:25:31.967Z,8.51
2018-10-21T04:28:56.738Z,8.49
2018-10-21T04:32:21.472Z,8.57
2018-10-21T04:35:46.153Z,8.39
2018-10-21T04:39:27.583Z,8.43
2018-10-21T04:42:52.267Z,8.31
2018-10-21T04:46:17.065Z,8.29
2018-10-21T04:49:41.768Z,8.17
2018-10-21T04:53:06.659Z,8.17
2018-10-21T04:56:31.368Z,8.18
2018-10-21T04:59:56.098Z,8.10
2018-10-21T05:03:20.851Z,8.15
2018-10-21T05:06:45.558Z,8.14
2018-10-21T05:10:25.849Z,8.13
2018-10-21T05:13:50.559Z,8.10
2018-10-21T05:17:15.306Z,8.11
2018-10-21T05:20:39.999Z,8.03
2018-10-21T05:24:04.852Z,8.07
2018-10-21T05:27:29.566Z,8.05
2018-10-21T05:30:54.333Z,7.98
2018-10-21T05:34:19.057Z,8.07
2018-10-21T05:37:43.817Z,7.97
2018-10-21T05:41:08.593Z,8.03
2018-10-21T05:44:33.311Z,8.00
2018-10-21T05:47:58.074Z,8.00
2018-10-21T05:51:22.774Z,8.15
2018-10-21T05:54:47.520Z,8.04
2018-10-21T05:58:12.269Z,8.08
2018-10-21T06:01:37.147Z,8.05
2018-10-21T06:05:01.935Z,8.01
2018-10-21T06:08:26.710Z,7.99
2018-10-21T06:11:51.451Z,7.94
2018-10-21T06:15:16.239Z,7.97
2018-10-21T06:18:41.065Z,7.99
2018-10-21T06:22:05.820Z,8.15
2018-10-21T06:25:30.591Z,8.33
2018-10-21T06:28:55.378Z,8.49
2018-10-21T06:32:20.159Z,8.81
2018-10-21T06:35:44.925Z,8.73
2018-10-21T06:39:10.327Z,8.95
2018-10-21T06:42:35.005Z,9.01
2018-10-21T06:45:59.765Z,9.01
2018-10-21T06:49:24.502Z,9.17
2018-10-21T06:52:49.632Z,9.05
2018-10-21T06:56:14.347Z,9.00
2018-10-21T06:59:39.114Z,8.93
2018-10-21T07:03:03.845Z,9.04
2018-10-21T07:06:29.552Z,9.00
2018-10-21T07:09:54.344Z,9.26
2018-10-21T07:13:19.237Z,9.45
2018-10-21T07:16:44.076Z,9.55
2018-10-21T07:20:09.272Z,9.69
2018-10-21T07:23:33.986Z,9.88
2018-10-21T07:26:58.813Z,9.94
2018-10-21T07:30:23.587Z,10.22
2018-10-21T07:33:48.324Z,10.15
2018-10-21T07:37:13.059Z,10.30
2018-10-21T07:40:37.754Z,10.49
2018-10-21T07:44:02.547Z,10.49
2018-10-21T07:47:27.297Z,10.69
2018-10-21T07:50:52.039Z,10.83
2018-10-21T07:54:16.794Z,10.96
2018-10-21T07:57:41.502Z,11.03
2018-10-21T08:01:06.315Z,11.05
2018-10-21T08:04:31.123Z,11.19
2018-10-21T08:08:11.782Z,11.32
2018-10-21T08:11:36.513Z,11.47
2018-10-21T08:15:01.350Z,11.55
2018-10-21T08:18:26.229Z,11.65
2018-10-21T08:21:51.025Z,11.77
2018-10-21T08:25:15.745Z,11.98
2018-10-21T08:28:40.540Z,12.11
2018-10-21T08:32:05.585Z,12.26
2018-10-21T08:35:30.347Z,12.37
2018-10-21T08:38:55.125Z,12.46
2018-10-21T08:42:19.857Z,12.66
2018-10-21T08:45:44.643Z,12.82
2018-10-21T08:49:09.413Z,12.83
2018-10-21T08:52:34.090Z,13.19
2018-10-21T08:55:58.971Z,12.97
2018-10-21T08:59:23.691Z,13.24
2018-10-21T09:02:48.577Z,13.48
2018-10-21T09:06:13.372Z,13.65
2018-10-21T09:09:38.289Z,13.68
2018-10-21T09:13:03.064Z,14.46
2018-10-21T09:16:27.799Z,14.77
2018-10-21T09:19:52.549Z,16.45
2018-10-21T09:23:17.326Z,18.99
2018-10-21T09:26:42.121Z,21.77
2018-10-21T09:30:08.700Z,21.98
2018-10-21T09:33:33.475Z,24.30
2018-10-21T09:36:58.273Z,24.67
2018-10-21T09:40:23.053Z,24.36
2018-10-21T09:43:47.745Z,25.84
2018-10-21T09:47:12.528Z,26.24
2018-10-21T09:50:37.285Z,27.24
2018-10-21T09:54:01.989Z,27.49
2018-10-21T09:57:26.770Z,27.43
2018-10-21T10:00:56.798Z,25.81
2018-10-21T10:04:21.524Z,26.54
2018-10-21T10:07:46.343Z,26.54
2018-10-21T10:11:11.099Z,26.70
2018-10-21T10:14:35.829Z,26.22
2018-10-21T10:18:00.686Z,27.32
2018-10-21T10:21:25.483Z,28.64
2018-10-21T10:24:50.432Z,28.15
2018-10-21T10:28:15.319Z,28.36
2018-10-21T10:31:39.959Z,27.60
2018-10-21T10:35:04.859Z,26.14
2018-10-21T10:38:29.681Z,28.71
2018-10-21T10:41:54.472Z,28.62
2018-10-21T10:45:19.276Z,27.25
2018-10-21T10:48:43.987Z,27.35
2018-10-21T10:52:08.727Z,28.15
2018-10-21T10:55:38.603Z,28.38
2018-10-21T10:59:03.385Z,28.56
2018-10-21T11:02:28.118Z,28.14
2018-10-21T11:05:52.871Z,28.32
2018-10-21T11:09:17.660Z,28.26
2018-10-21T11:12:42.435Z,27.77
2018-10-21T11:16:07.932Z,28.17
2018-10-21T11:19:32.689Z,28.95
2018-10-21T11:22:57.611Z,28.92
2018-10-21T11:26:22.303Z,27.85
2018-10-21T11:29:48.365Z,27.55
2018-10-21T11:33:13.142Z,28.18
2018-10-21T11:36:37.857Z,29.86
2018-10-21T11:40:02.663Z,29.07
2018-10-21T11:43:27.401Z,28.35
2018-10-21T11:46:52.337Z,28.28
2018-10-21T11:50:17.079Z,27.43
2018-10-21T11:53:41.780Z,26.13
2018-10-21T11:57:07.385Z,26.94
2018-10-21T12:00:32.191Z,28.42
2018-10-21T12:03:56.923Z,28.46
2018-10-21T12:07:21.648Z,29.38
2018-10-21T12:10:46.376Z,30.02
2018-10-21T12:14:11.584Z,29.74
2018-10-21T12:17:36.334Z,30.64
2018-10-21T12:21:01.095Z,30.39
2018-10-21T12:24:25.810Z,31.72
2018-10-21T12:27:50.591Z,32.68
2018-10-21T12:31:15.395Z,31.34
2018-10-21T12:34:40.163Z,30.79
2018-10-21T12:38:05.009Z,30.91
2018-10-21T12:41:30.621Z,32.26
2018-10-21T12:44:55.389Z,32.85
2018-10-21T12:48:20.119Z,32.24
2018-10-21T12:51:45.004Z,32.49
2018-10-21T12:55:10.694Z,32.04
2018-10-21T12:58:35.409Z,31.25
2018-10-21T13:02:00.110Z,32.08
2018-10-21T13:05:24.762Z,33.93
2018-10-21T13:08:49.545Z,32.15
2018-10-21T13:12:14.312Z,31.12
2018-10-21T13:15:39.127Z,30.32
2018-10-21T13:19:04.721Z,27.29
2018-10-21T13:22:29.353Z,30.27
2018-10-21T13:25:54.109Z,30.08
2018-10-21T13:29:18.816Z,32.85
2018-10-21T13:32:43.523Z,32.51
2018-10-21T13:36:08.388Z,30.92
2018-10-21T13:39:33.110Z,31.72
2018-10-21T13:42:57.869Z,32.54
2018-10-21T13:46:22.741Z,31.75
2018-10-21T13:49:47.421Z,30.51
2018-10-21T13:53:12.300Z,31.47
2018-10-21T13:56:36.947Z,32.31
2018-10-21T14:00:01.663Z,33.49
2018-10-21T14:03:26.372Z,33.29
2018-10-21T14:06:51.130Z,31.41
2018-10-21T14:10:15.934Z,32.75
2018-10-21T14:13:40.686Z,32.45
2018-10-21T14:17:05.488Z,29.28
2018-10-21T14:20:30.272Z,29.47
2018-10-21T14:23:55.031Z,32.42
2018-10-21T14:27:19.739Z,31.91
2018-10-21T14:30:44.497Z,32.45
2018-10-21T14:34:09.304Z,30.64
2018-10-21T14:37:34.057Z,28.31
2018-10-21T14:40:58.748Z,28.66
2018-10-21T14:44:23.428Z,28.70
2018-10-21T14:47:48.129Z,29.66
2018-10-21T14:51:12.874Z,28.86
2018-10-21T14:54:37.533Z,28.38
2018-10-21T14:58:02.246Z,29.83
2018-10-21T15:01:27.052Z,29.08
2018-10-21T15:04:51.807Z,28.75
2018-10-21T15:08:16.634Z,28.27
2018-10-21T15:11:41.627Z,28.11
2018-10-21T15:15:07.419Z,28.34
2018-10-21T15:18:32.145Z,29.46
2018-10-21T15:21:56.933Z,28.94
2018-10-21T15:25:21.628Z,29.82
2018-10-21T15:28:46.368Z,29.87
2018-10-21T15:32:11.140Z,27.95
2018-10-21T15:35:35.859Z,27.80
2018-10-21T15:39:00.585Z,26.94
2018-10-21T15:42:25.453Z,26.40
2018-10-21T15:45:50.226Z,25.32
2018-10-21T15:49:14.912Z,24.14
2018-10-21T15:52:39.622Z,23.33
2018-10-21T15:56:04.528Z,22.51
2018-10-21T15:59:29.257Z,22.53
2018-10-21T16:02:53.992Z,21.58
2018-10-21T16:06:18.736Z,21.74
2018-10-21T16:09:43.382Z,21.10
2018-10-21T16:13:09.873Z,20.70
2018-10-21T16:16:34.656Z,20.57
2018-10-21T16:19:59.425Z,20.29
2018-10-21T16:23:24.117Z,19.39
2018-10-21T16:26:48.887Z,19.29
2018-10-21T16:30:14.905Z,19.23
2018-10-21T16:33:39.699Z,19.05
2018-10-21T16:37:04.428Z,18.08
2018-10-21T16:40:29.169Z,18.25
2018-10-21T16:43:53.945Z,18.05
2018-10-21T16:47:18.684Z,17.88
2018-10-21T16:50:43.426Z,17.66
2018-10-21T16:54:08.298Z,17.00
2018-10-21T16:57:33.042Z,16.91
2018-10-21T17:00:57.953Z,17.00
2018-10-21T17:04:22.530Z,16.94
2018-10-21T17:07:47.322Z,16.64
2018-10-21T17:11:12.138Z,16.36
2018-10-21T17:14:36.764Z,16.33
2018-10-21T17:18:01.521Z,16.13
2018-10-21T17:21:26.231Z,15.96
2018-10-21T17:24:51.278Z,15.93
2018-10-21T17:28:16.093Z,15.77
2018-10-21T17:31:40.783Z,15.91
2018-10-21T17:35:06.718Z,15.52
2018-10-21T17:38:31.425Z,15.54
2018-10-21T17:41:56.240Z,15.37
2018-10-21T17:45:20.999Z,15.09
2018-10-21T17:48:45.768Z,15.17
2018-10-21T17:52:10.677Z,15.07
2018-10-21T17:55:35.339Z,15.17
2018-10-21T17:59:00.219Z,14.93
2018-10-21T18:02:24.983Z,15.00
2018-10-21T18:05:49.729Z,14.86
2018-10-21T18:09:14.860Z,14.96
2018-10-21T18:12:39.603Z,14.78
2018-10-21T18:16:04.916Z,14.62
2018-10-21T18:19:29.633Z,14.47
2018-10-21T18:22:54.388Z,14.75
2018-10-21T18:26:19.100Z,14.65
2018-10-21T18:29:43.848Z,14.34
2018-10-21T18:33:08.700Z,14.09
2018-10-21T18:36:33.301Z,14.09
2018-10-21T18:39:58.125Z,14.20
2018-10-21T18:43:22.869Z,13.86
2018-10-21T18:46:47.631Z,13.76
2018-10-21T18:50:14.198Z,13.85
2018-10-21T18:53:38.969Z,13.86
2018-10-21T18:57:03.716Z,13.92
2018-10-21T19:00:28.447Z,13.45
2018-10-21T19:03:53.175Z,13.57
2018-10-21T19:07:17.944Z,13.46
2018-10-21T19:10:42.752Z,13.48
2018-10-21T19:14:07.886Z,13.35
2018-10-21T19:17:32.571Z,13.66
2018-10-21T19:20:57.338Z,13.32
2018-10-21T19:24:22.079Z,13.34
2018-10-21T19:27:47.285Z,12.90
2018-10-21T19:31:12.058Z,13.37
2018-10-21T19:34:36.826Z,13.16
2018-10-21T19:38:01.563Z,13.12
2018-10-21T19:41:26.269Z,12.95
2018-10-21T19:44:51.142Z,12.96
2018-10-21T19:48:15.993Z,12.65
2018-10-21T19:51:41.863Z,12.57
2018-10-21T19:55:07.329Z,12.64
2018-10-21T19:58:32.435Z,12.80
2018-10-21T20:01:57.291Z,12.95
2018-10-21T20:05:22.458Z,12.45
2018-10-21T20:08:47.367Z,12.52
2018-10-21T20:12:12.208Z,12.49
2018-10-21T20:15:37.043Z,12.50
2018-10-21T20:19:01.839Z,12.55
2018-10-21T20:22:26.680Z,12.51
2018-10-21T20:25:51.680Z,12.48
2018-10-21T20:29:16.572Z,12.17
2018-10-21T20:32:41.782Z,12.21
2018-10-21T20:36:06.654Z,12.27
2018-10-21T20:39:32.037Z,12.27
2018-10-21T20:42:56.910Z,12.10
2018-10-21T20:46:21.767Z,11.95
2018-10-21T20:49:47.012Z,11.97
2018-10-21T20:53:11.833Z,11.99
2018-10-21T20:56:36.764Z,12.00
2018-10-21T21:00:01.755Z,12.03
2018-10-21T21:03:26.772Z,11.78
2018-10-21T21:06:51.734Z,11.95
2018-10-21T21:10:16.661Z,11.78
2018-10-21T21:13:41.976Z,11.86
2018-10-21T21:17:06.924Z,11.84
2018-10-21T21:20:31.906Z,11.68
2018-10-21T21:23:56.823Z,11.69
2018-10-21T21:27:22.115Z,11.61
2018-10-21T21:30:47.881Z,11.65
2018-10-21T21:34:12.803Z,11.69
2018-10-21T21:37:37.902Z,11.89
2018-10-21T21:41:02.903Z,12.09
2018-10-21T21:44:27.741Z,12.00
2018-10-21T21:47:52.581Z,12.38
2018-10-21T21:51:17.478Z,12.53
2018-10-21T21:54:42.248Z,12.54
2018-10-21T21:58:07.301Z,12.57
2018-10-21T22:01:32.088Z,12.97
2018-10-21T22:04:57.017Z,12.72
2018-10-21T22:08:21.766Z,13.18
2018-10-21T22:11:46.535Z,13.41
2018-10-21T22:15:11.326Z,13.45
2018-10-21T22:18:36.048Z,13.53
2018-10-21T22:22:00.863Z,13.31
2018-10-21T22:25:25.600Z,13.39
2018-10-21T22:28:50.344Z,13.32
2018-10-21T22:32:15.100Z,13.23
2018-10-21T22:35:39.838Z,12.88
2018-10-21T22:39:05.884Z,12.82
2018-10-21T22:42:30.761Z,12.78
2018-10-21T22:45:55.475Z,12.88
2018-10-21T22:49:20.182Z,13.12
2018-10-21T22:52:44.897Z,13.31
2018-10-21T22:56:09.706Z,13.41
2018-10-21T22:59:34.460Z,13.66
2018-10-21T23:02:59.214Z,13.64
2018-10-21T23:06:23.972Z,13.79
2018-10-21T23:09:48.725Z,13.90
2018-10-21T23:13:13.461Z,13.85
2018-10-21T23:16:38.231Z,13.69
2018-10-21T23:20:02.985Z,13.76
2018-10-21T23:23:27.788Z,13.80
2018-10-21T23:26:52.619Z,13.74
2018-10-21T23:30:17.467Z,13.64
2018-10-21T23:33:42.116Z,13.73
2018-10-21T23:37:07.077Z,13.71
2018-10-21T23:40:31.815Z,13.80
2018-10-21T23:43:56.541Z,13.74
2018-10-21T23:47:21.307Z,13.86
2018-10-21T23:50:46.050Z,13.98
2018-10-21T23:54:10.978Z,14.10
2018-10-21T23:57:35.671Z,14.34
